Time;durP1;ratioP1;P1;durP2;ratioP2;P2;SDS_P1;SDS_P2;PMS_P1;PMS_P2;Temp;Humidity;BMP_temperature;BMP_pressure;BME280_temperature;BME280_humidity;BME280_pressure;Samples;Min_cycle;Max_cycle;Signal;HPM_P1;HPM_P2
2023/08/14 00:01:50;;;;;;;0.00;0.00;;;;;;;16.89;100.00;101541.19;5071489;28;20036;-45
2023/08/14 00:04:15;;;;;;;0.00;0.00;;;;;;;16.87;100.00;101535.09;5071164;28;20024;-45
2023/08/14 00:06:41;;;;;;;0.00;0.00;;;;;;;16.87;100.00;101525.06;5053701;28;20123;-43
2023/08/14 00:09:06;;;;;;;0.00;0.00;;;;;;;16.85;100.00;101527.19;5071719;28;20028;-44
2023/08/14 00:11:31;;;;;;;0.00;0.00;;;;;;;16.84;100.00;101530.91;5054373;28;20275;-43
2023/08/14 00:13:57;;;;;;;0.00;0.00;;;;;;;16.83;100.00;101531.97;5070354;28;20036;-45
2023/08/14 00:16:23;;;;;;;0.00;0.00;;;;;;;16.82;100.00;101532.16;5070627;28;20017;-46
2023/08/14 00:18:49;;;;;;;0.00;0.00;;;;;;;16.79;100.00;101538.03;5071512;28;20371;-47
2023/08/14 00:21:14;;;;;;;0.00;0.00;;;;;;;16.77;100.00;101531.91;5071496;28;20047;-43
2023/08/14 00:23:40;;;;;;;0.00;0.00;;;;;;;16.74;100.00;101527.72;5071248;28;20059;-45
2023/08/14 00:26:05;;;;;;;0.00;0.00;;;;;;;16.74;100.00;101527.72;5071252;28;20052;-47
2023/08/14 00:28:31;;;;;;;0.00;0.00;;;;;;;16.75;100.00;101526.72;5071631;28;20024;-46
2023/08/14 00:30:56;;;;;;;0.00;0.00;;;;;;;16.74;100.00;101535.88;5071770;28;20398;-42
2023/08/14 00:33:22;;;;;;;0.00;0.00;;;;;;;16.73;100.00;101528.78;5071116;28;20024;-43
2023/08/14 00:35:47;;;;;;;0.00;0.00;;;;;;;16.73;100.00;101522.53;5070505;28;20033;-44
2023/08/14 00:38:12;;;;;;;0.00;0.00;;;;;;;16.71;100.00;101530.88;5071053;28;20062;-45
2023/08/14 00:40:39;;;;;;;0.00;0.00;;;;;;;16.71;100.00;101522.72;5071391;28;20082;-43
2023/08/14 00:43:04;;;;;;;0.00;0.00;;;;;;;16.73;100.00;101526.06;5071446;28;20108;-45
2023/08/14 00:45:29;;;;;;;0.00;0.00;;;;;;;16.75;100.00;101515.00;5070888;28;20051;-46
2023/08/14 00:47:55;;;;;;;0.00;0.00;;;;;;;16.72;100.00;101520.81;5071353;28;20382;-44
2023/08/14 00:50:21;;;;;;;0.00;0.00;;;;;;;16.71;100.00;101514.56;5070896;28;20028;-44
2023/08/14 00:52:47;;;;;;;0.00;0.00;;;;;;;16.70;100.00;101512.06;5071845;28;20432;-41
2023/08/14 00:55:17;;;;;;;0.00;0.00;;;;;;;16.65;100.00;101508.06;5071520;28;20020;-43
2023/08/14 00:57:43;;;;;;;0.00;0.00;;;;;;;16.65;100.00;101510.78;5071794;28;20048;-42
2023/08/14 01:00:09;;;;;;;0.00;0.00;;;;;;;16.64;100.00;101500.97;5052935;28;20120;-43
2023/08/14 01:02:35;;;;;;;0.00;0.00;;;;;;;16.64;100.00;101497.38;5071068;28;20071;-45
2023/08/14 01:05:01;;;;;;;0.00;0.00;;;;;;;16.65;100.00;101509.97;5069957;28;20048;-43
2023/08/14 01:07:26;;;;;;;0.00;0.00;;;;;;;16.65;100.00;101507.25;5070980;28;20025;-44
2023/08/14 01:09:52;;;;;;;0.00;0.00;;;;;;;16.63;100.00;101501.16;5070784;28;20036;-45
2023/08/14 01:12:45;;;;;;;0.00;0.00;;;;;;;16.62;100.00;101502.22;5070560;28;20024;-42
2023/08/14 01:15:15;;;;;;;0.00;0.00;;;;;;;16.63;100.00;101495.72;5069579;28;20047;-42
2023/08/14 01:17:48;;;;;;;0.00;0.00;;;;;;;16.63;100.00;101493.00;5070621;28;20028;-45
2023/08/14 01:20:15;;;;;;;0.00;0.00;;;;;;;16.63;100.00;101484.84;5052483;28;20568;-49
2023/08/14 01:23:02;;;;;;;0.00;0.00;;;;;;;16.62;100.00;101483.19;5052318;28;20560;-45
2023/08/14 01:25:32;;;;;;;0.00;0.00;;;;;;;16.62;100.00;101477.75;5070651;28;20050;-43
2023/08/14 01:28:01;;;;;;;0.00;0.00;;;;;;;16.59;100.00;101472.75;5070865;28;20103;-48
2023/08/14 01:30:27;;;;;;;0.00;0.00;;;;;;;16.56;100.00;101460.41;5052273;28;20032;-45
2023/08/14 01:32:53;;;;;;;0.00;0.00;;;;;;;16.58;100.00;101461.00;5070534;28;20102;-45
2023/08/14 01:35:20;;;;;;;0.00;0.00;;;;;;;16.58;100.00;101455.56;5070115;28;20097;-46
2023/08/14 01:37:45;;;;;;;0.00;0.00;;;;;;;16.59;100.00;101457.28;5070341;28;20024;-45
2023/08/14 01:40:46;;;;;;;0.00;0.00;;;;;;;16.58;100.00;101455.56;5069861;28;20720;-45
2023/08/14 01:43:17;;;;;;;0.00;0.00;;;;;;;16.57;100.00;101450.38;5056395;28;20379;-42
2023/08/14 01:45:42;;;;;;;0.00;0.00;;;;;;;16.58;100.00;101443.88;5052527;28;20107;-46
2023/08/14 01:48:09;;;;;;;0.00;0.00;;;;;;;16.57;100.00;101444.94;5070221;28;20036;-45
2023/08/14 01:50:35;;;;;;;0.00;0.00;;;;;;;16.55;100.00;101447.00;5070386;28;20086;-44
2023/08/14 01:53:01;;;;;;;0.00;0.00;;;;;;;16.51;100.00;101448.47;5070727;28;20032;-46
2023/08/14 01:55:26;;;;;;;0.00;0.00;;;;;;;16.49;100.00;101445.13;5052916;28;20234;-45
2023/08/14 01:57:52;;;;;;;0.00;0.00;;;;;;;16.41;100.00;101438.84;5069994;28;20032;-44
2023/08/14 02:00:18;;;;;;;0.00;0.00;;;;;;;16.39;100.00;101429.22;5069941;28;20077;-43
2023/08/14 02:02:44;;;;;;;0.00;0.00;;;;;;;16.37;100.00;101440.28;5061779;28;20024;-45
2023/08/14 02:05:09;;;;;;;0.00;0.00;;;;;;;16.33;100.00;101427.34;5069198;28;20151;-44
2023/08/14 02:07:34;;;;;;;0.00;0.00;;;;;;;16.32;100.00;101426.47;5069825;28;20103;-44
2023/08/14 02:10:00;;;;;;;0.00;0.00;;;;;;;16.29;100.00;101426.88;5069749;28;20081;-47
2023/08/14 02:12:25;;;;;;;0.00;0.00;;;;;;;16.28;100.00;101427.94;5069934;28;20060;-43
2023/08/14 02:14:51;;;;;;;0.00;0.00;;;;;;;16.25;100.00;101417.50;5069179;28;20021;-43
2023/08/14 02:17:16;;;;;;;0.00;0.00;;;;;;;16.20;100.00;101433.56;5069694;28;20025;-45
2023/08/14 02:19:41;;;;;;;0.00;0.00;;;;;;;16.15;100.00;101422.47;5069609;28;20033;-42
2023/08/14 02:22:07;;;;;;;0.00;0.00;;;;;;;16.10;100.00;101425.81;5069022;28;20025;-43
2023/08/14 02:24:32;;;;;;;0.00;0.00;;;;;;;16.07;100.00;101419.94;5070037;28;20033;-42
2023/08/14 02:26:57;;;;;;;0.00;0.00;;;;;;;16.07;100.00;101417.25;5072211;28;20414;-42
2023/08/14 02:29:23;;;;;;;0.00;0.00;;;;;;;16.06;100.00;101415.53;5073701;28;20122;-43
2023/08/14 02:31:50;;;;;;;0.00;0.00;;;;;;;16.01;100.00;101414.28;5073399;28;20497;-44
2023/08/14 02:34:44;;;;;;;0.00;0.00;;;;;;;15.98;100.00;101417.44;5074468;28;20055;-43
2023/08/14 02:37:11;;;;;;;0.00;0.00;;;;;;;15.98;100.00;101422.00;5073416;28;20028;-43
2023/08/14 02:39:36;;;;;;;0.00;0.00;;;;;;;15.93;100.00;101419.06;5055751;28;20063;-43
2023/08/14 02:42:01;;;;;;;0.00;0.00;;;;;;;15.90;100.00;101423.00;5072608;28;20017;-44
2023/08/14 02:44:27;;;;;;;0.00;0.00;;;;;;;15.88;100.00;101422.41;5073039;28;20471;-41
2023/08/14 02:46:56;;;;;;;0.00;0.00;;;;;;;15.85;100.00;101422.81;5073166;28;20074;-43
2023/08/14 02:49:22;;;;;;;0.00;0.00;;;;;;;15.85;100.00;101421.94;5072929;28;20028;-43
2023/08/14 02:51:47;;;;;;;0.00;0.00;;;;;;;15.82;100.00;101425.91;5072845;28;20517;-43
2023/08/14 02:54:12;;;;;;;0.00;0.00;;;;;;;15.78;100.00;101428.19;5073015;28;20445;-43
2023/08/14 02:56:38;;;;;;;0.00;0.00;;;;;;;15.73;100.00;101429.84;5072771;28;20101;-44
2023/08/14 02:59:03;;;;;;;0.00;0.00;;;;;;;15.72;100.00;101428.19;5073086;28;20049;-41
2023/08/14 03:01:29;;;;;;;0.00;0.00;;;;;;;15.70;100.00;101433.78;5072733;28;20032;-43
2023/08/14 03:03:54;;;;;;;0.00;0.00;;;;;;;15.68;100.00;101433.13;5073004;28;20463;-45
2023/08/14 03:06:19;;;;;;;0.00;0.00;;;;;;;15.66;100.00;101440.63;5072691;28;20036;-45
2023/08/14 03:08:45;;;;;;;0.00;0.00;;;;;;;15.61;100.00;101439.53;5055099;28;20062;-43
2023/08/14 03:11:10;;;;;;;0.00;0.00;;;;;;;15.55;100.00;101433.88;5073148;28;20101;-45
2023/08/14 03:13:35;;;;;;;0.00;0.00;;;;;;;15.54;100.00;101437.66;5072841;28;20024;-46
2023/08/14 03:16:01;;;;;;;0.00;0.00;;;;;;;15.53;100.00;101440.53;5073069;28;20085;-43
2023/08/14 03:18:26;;;;;;;0.00;0.00;;;;;;;15.55;100.00;101438.47;5072763;28;20035;-47
2023/08/14 03:20:51;;;;;;;0.00;0.00;;;;;;;15.52;100.00;101445.13;5072516;28;20025;-43
2023/08/14 03:23:17;;;;;;;0.00;0.00;;;;;;;15.52;100.00;101442.44;5073002;28;20384;-45
2023/08/14 03:25:42;;;;;;;0.00;0.00;;;;;;;15.52;100.00;101444.31;5072813;28;20612;-43
2023/08/14 03:28:07;;;;;;;0.00;0.00;;;;;;;15.53;100.00;101438.69;5072521;28;20024;-44
2023/08/14 03:30:33;;;;;;;0.00;0.00;;;;;;;15.53;100.00;101435.97;5072971;28;20059;-44
2023/08/14 03:32:59;;;;;;;0.00;0.00;;;;;;;15.57;100.00;101436.41;5072160;28;20029;-43
2023/08/14 03:35:24;;;;;;;0.00;0.00;;;;;;;15.51;100.00;101432.63;5072172;28;20032;-45
2023/08/14 03:37:49;;;;;;;0.00;0.00;;;;;;;15.52;100.00;101433.47;5071031;28;20027;-45
2023/08/14 03:40:15;;;;;;;0.00;0.00;;;;;;;15.51;100.00;101439.94;5072170;28;20028;-45
2023/08/14 03:42:40;;;;;;;0.00;0.00;;;;;;;15.50;100.00;101441.78;5072032;28;20039;-45
2023/08/14 03:45:06;;;;;;;0.00;0.00;;;;;;;15.49;100.00;101434.69;5072336;28;20060;-48
2023/08/14 03:47:32;;;;;;;0.00;0.00;;;;;;;15.51;100.00;101443.47;5071952;28;20521;-44
2023/08/14 03:49:57;;;;;;;0.00;0.00;;;;;;;15.48;100.00;101433.03;5072189;28;20029;-42
2023/08/14 03:52:22;;;;;;;0.00;0.00;;;;;;;15.48;100.00;101438.47;5071643;28;20517;-45
2023/08/14 03:54:48;;;;;;;0.00;0.00;;;;;;;15.47;100.00;101430.50;5071853;28;20039;-48
2023/08/14 03:57:13;;;;;;;0.00;0.00;;;;;;;15.46;100.00;101437.81;5072044;28;20106;-44
2023/08/14 03:59:39;;;;;;;0.00;0.00;;;;;;;15.45;100.00;101438.81;5074698;28;20041;-42
2023/08/14 04:02:04;;;;;;;0.00;0.00;;;;;;;15.45;100.00;101438.00;5074720;28;20113;-43
2023/08/14 04:04:29;;;;;;;0.00;0.00;;;;;;;15.44;100.00;101439.03;5073614;28;20028;-42
2023/08/14 04:06:55;;;;;;;0.00;0.00;;;;;;;15.45;100.00;101438.81;5073242;28;20056;-43
2023/08/14 04:09:20;;;;;;;0.00;0.00;;;;;;;15.48;100.00;101445.72;5072454;28;20352;-43
2023/08/14 04:11:45;;;;;;;0.00;0.00;;;;;;;15.47;100.00;101431.34;5072763;28;20032;-44
2023/08/14 04:14:11;;;;;;;0.00;0.00;;;;;;;15.48;100.00;101432.16;5071818;28;20031;-42
2023/08/14 04:16:43;;;;;;;0.00;0.00;;;;;;;15.48;100.00;101443.88;5071890;28;20032;-46
2023/08/14 04:19:15;;;;;;;0.00;0.00;;;;;;;15.49;100.00;101434.69;5071846;28;20077;-46
2023/08/14 04:21:41;;;;;;;0.00;0.00;;;;;;;15.49;100.00;101433.88;5071361;28;20108;-46
2023/08/14 04:24:07;;;;;;;0.00;0.00;;;;;;;15.46;100.00;101435.09;5072387;28;20387;-43
2023/08/14 04:26:33;;;;;;;0.00;0.00;;;;;;;15.46;100.00;101434.28;5072583;28;20333;-47
2023/08/14 04:28:58;;;;;;;0.00;0.00;;;;;;;15.43;100.00;101434.63;5071323;28;20095;-44
2023/08/14 04:31:24;;;;;;;0.00;0.00;;;;;;;15.45;100.00;101438.81;5071173;28;20036;-46
2023/08/14 04:33:49;;;;;;;0.00;0.00;;;;;;;15.45;100.00;101441.53;5071068;28;20489;-45
2023/08/14 04:36:14;;;;;;;0.00;0.00;;;;;;;15.41;100.00;101428.59;5070294;28;20032;-46
2023/08/14 04:38:40;;;;;;;0.00;0.00;;;;;;;15.42;100.00;101428.38;5071287;28;20031;-46
2023/08/14 04:41:05;;;;;;;0.00;0.00;;;;;;;15.47;100.00;101431.34;5070906;28;20399;-45
2023/08/14 04:43:31;;;;;;;0.00;0.00;;;;;;;15.46;100.00;101426.13;5053031;28;20067;-46
2023/08/14 04:46:08;;;;;;;0.00;0.00;;;;;;;15.51;100.00;101423.66;5071058;28;20069;-44
2023/08/14 04:48:34;;;;;;;0.00;0.00;;;;;;;15.51;100.00;101420.94;5071175;28;20104;-45
2023/08/14 04:50:59;;;;;;;0.00;0.00;;;;;;;15.50;100.00;101420.06;5070847;28;20170;-44
2023/08/14 04:53:24;;;;;;;0.00;0.00;;;;;;;15.53;100.00;101413.41;5069891;28;20116;-43
2023/08/14 04:55:51;;;;;;;0.00;0.00;;;;;;;15.56;100.00;101410.28;5069070;28;20116;-45
2023/08/14 04:58:16;;;;;;;0.00;0.00;;;;;;;15.61;100.00;101405.09;5069977;28;20049;-45
2023/08/14 05:00:41;;;;;;;0.00;0.00;;;;;;;15.65;100.00;101405.56;5070711;28;20536;-43
2023/08/14 05:03:07;;;;;;;0.00;0.00;;;;;;;15.69;100.00;101413.13;5069470;28;20060;-44
2023/08/14 05:05:32;;;;;;;0.00;0.00;;;;;;;15.70;100.00;101414.78;5070731;28;20120;-43
2023/08/14 05:07:58;;;;;;;0.00;0.00;;;;;;;15.69;100.00;101406.84;5070038;28;20035;-44
2023/08/14 05:10:23;;;;;;;0.00;0.00;;;;;;;15.73;100.00;101403.53;5070353;28;20036;-45
2023/08/14 05:12:48;;;;;;;0.00;0.00;;;;;;;15.75;100.00;101408.78;5070134;28;20046;-45
2023/08/14 05:15:14;;;;;;;0.00;0.00;;;;;;;15.76;100.00;101415.84;5070430;28;20024;-44
2023/08/14 05:17:39;;;;;;;0.00;0.00;;;;;;;15.77;100.00;101417.53;5070018;28;20044;-43
2023/08/14 05:20:05;;;;;;;0.00;0.00;;;;;;;15.81;100.00;101421.53;5069674;28;20030;-45
2023/08/14 05:22:31;;;;;;;0.00;0.00;;;;;;;15.82;100.00;101422.34;5066128;28;20079;-45
2023/08/14 05:24:56;;;;;;;0.00;0.00;;;;;;;15.87;100.00;101422.59;5069706;28;20059;-43
2023/08/14 05:27:21;;;;;;;0.00;0.00;;;;;;;15.91;100.00;101423.88;5069918;28;20024;-44
2023/08/14 05:29:47;;;;;;;0.00;0.00;;;;;;;15.92;100.00;101420.09;5051180;28;20025;-45
2023/08/14 05:32:13;;;;;;;0.00;0.00;;;;;;;15.97;100.00;101420.34;5051996;28;20056;-46
2023/08/14 05:34:38;;;;;;;0.00;0.00;;;;;;;16.00;100.00;101415.31;5069122;28;20107;-44
2023/08/14 05:37:03;;;;;;;0.00;0.00;;;;;;;16.00;100.00;101418.03;5069216;28;20514;-46
2023/08/14 05:39:29;;;;;;;0.00;0.00;;;;;;;16.05;100.00;101411.16;5069230;28;20390;-45
2023/08/14 05:41:54;;;;;;;0.00;0.00;;;;;;;16.13;100.00;101408.25;5070253;28;20056;-47
2023/08/14 05:44:19;;;;;;;0.00;0.00;;;;;;;16.24;100.00;101411.25;5070261;28;20032;-42
2023/08/14 05:46:45;;;;;;;0.00;0.00;;;;;;;16.29;100.00;101407.88;5069803;28;20111;-45
2023/08/14 05:49:10;;;;;;;0.00;0.00;;;;;;;16.37;100.00;101409.56;5070281;28;20020;-46
2023/08/14 05:51:35;;;;;;;0.00;0.00;;;;;;;16.43;100.00;101415.03;5070177;28;20035;-46
2023/08/14 05:54:01;;;;;;;0.00;0.00;;;;;;;16.40;100.00;101404.56;5069696;28;20700;-46
2023/08/14 05:56:26;;;;;;;0.00;0.00;;;;;;;16.44;100.00;101405.00;5070474;28;20070;-45
2023/08/14 05:58:52;;;;;;;0.00;0.00;;;;;;;16.50;100.00;101400.59;5070054;28;20676;-45
2023/08/14 06:01:17;;;;;;;0.00;0.00;;;;;;;16.50;100.00;101404.16;5071978;28;20021;-45
2023/08/14 06:03:43;;;;;;;0.00;0.00;;;;;;;16.57;100.00;101402.28;5046263;28;20417;-46
2023/08/14 06:06:08;;;;;;;0.00;0.00;;;;;;;16.66;100.00;101403.75;5060718;28;20107;-49
2023/08/14 06:08:34;;;;;;;0.00;0.00;;;;;;;16.68;100.00;101401.66;5073503;28;20032;-45
2023/08/14 06:11:01;;;;;;;0.00;0.00;;;;;;;16.73;100.00;101398.31;5073209;28;20036;-44
2023/08/14 06:13:27;;;;;;;0.00;0.00;;;;;;;16.76;100.00;101397.88;5073345;28;20557;-46
2023/08/14 06:15:53;;;;;;;0.00;0.00;;;;;;;16.91;100.00;101399.59;5072968;28;20036;-47
2023/08/14 06:18:18;;;;;;;0.00;0.00;;;;;;;17.01;100.00;101397.28;5073201;28;20376;-47
2023/08/14 06:20:43;;;;;;;0.00;0.00;;;;;;;17.08;100.00;101389.94;5073430;28;20024;-45
2023/08/14 06:23:09;;;;;;;0.00;0.00;;;;;;;17.18;100.00;101384.91;5073031;28;20043;-48
2023/08/14 06:25:34;;;;;;;0.00;0.00;;;;;;;17.21;100.00;101387.19;5073334;28;20036;-42
2023/08/14 06:27:59;;;;;;;0.00;0.00;;;;;;;17.30;100.00;101387.84;5073505;28;20067;-45
2023/08/14 06:30:25;;;;;;;0.00;0.00;;;;;;;17.55;100.00;101387.94;5073690;28;20103;-44
2023/08/14 06:32:50;;;;;;;0.00;0.00;;;;;;;17.68;100.00;101382.44;5073746;28;20047;-46
2023/08/14 06:35:17;;;;;;;0.00;0.00;;;;;;;17.87;100.00;101393.50;5062332;28;20036;-46
2023/08/14 06:37:42;;;;;;;0.00;0.00;;;;;;;18.04;100.00;101388.41;5072660;28;20425;-45
2023/08/14 06:40:09;;;;;;;0.00;0.00;;;;;;;17.99;100.00;101380.88;5070709;28;20063;-44
2023/08/14 06:42:34;;;;;;;0.00;0.00;;;;;;;17.90;100.00;101388.44;5069438;28;20025;-46
2023/08/14 06:44:59;;;;;;;0.00;0.00;;;;;;;17.93;100.00;101392.63;5072186;28;20020;-47
2023/08/14 06:47:25;;;;;;;0.00;0.00;;;;;;;17.89;100.00;101396.84;5073110;28;20052;-47
2023/08/14 06:49:50;;;;;;;0.00;0.00;;;;;;;18.12;100.00;101391.69;5073183;28;20033;-44
2023/08/14 06:52:16;;;;;;;0.00;0.00;;;;;;;19.14;100.00;101393.44;5055391;28;20077;-44
2023/08/14 06:54:42;;;;;;;0.00;0.00;;;;;;;20.16;100.00;101385.47;5066080;28;20056;-47
2023/08/14 06:57:08;;;;;;;0.00;0.00;;;;;;;21.65;100.00;101377.03;5070607;28;20016;-48
2023/08/14 06:59:33;;;;;;;0.05;0.00;;;;;;;22.41;100.00;101373.25;5072737;28;20128;-45
2023/08/14 07:01:58;;;;;;;0.00;0.00;;;;;;;23.08;100.00;101362.25;5070719;28;20466;-48
2023/08/14 07:04:24;;;;;;;0.00;0.00;;;;;;;23.58;100.00;101366.78;5073103;28;20514;-47
2023/08/14 07:06:49;;;;;;;0.00;0.00;;;;;;;23.55;100.00;101367.28;5072796;28;20029;-46
2023/08/14 07:09:16;;;;;;;0.00;0.00;;;;;;;23.16;100.00;101375.56;5073274;28;20421;-45
2023/08/14 07:11:42;;;;;;;0.00;0.00;;;;;;;22.70;100.00;101382.25;5072859;28;20058;-45
2023/08/14 07:14:07;;;;;;;0.00;0.00;;;;;;;21.59;100.00;101377.16;5072567;28;20020;-45
2023/08/14 07:16:33;;;;;;;0.00;0.00;;;;;;;21.15;100.00;101388.50;5073670;28;20438;-44
2023/08/14 07:18:59;;;;;;;0.00;0.00;;;;;;;20.56;100.00;101393.09;5073923;28;20020;-43
2023/08/14 07:21:24;;;;;;;0.00;0.00;;;;;;;20.16;100.00;101386.31;5073485;28;20386;-45
2023/08/14 07:23:50;;;;;;;0.00;0.00;;;;;;;20.00;100.00;101380.69;5073517;28;20028;-46
2023/08/14 07:26:16;;;;;;;0.00;0.00;;;;;;;20.20;100.00;101386.69;5073309;28;20034;-46
2023/08/14 07:28:41;;;;;;;0.00;0.00;;;;;;;20.50;100.00;101377.63;5073579;28;20036;-46
2023/08/14 07:31:08;;;;;;;0.00;0.00;;;;;;;21.33;100.00;101373.00;5055127;28;20024;-46
2023/08/14 07:33:34;;;;;;;0.00;0.00;;;;;;;22.44;100.00;101362.63;5073023;28;20495;-43
2023/08/14 07:36:00;;;;;;;0.00;0.00;;;;;;;23.38;100.00;101339.88;5054720;28;20025;-45
2023/08/14 07:38:25;;;;;;;0.00;0.00;;;;;;;23.36;100.00;101342.06;5072348;28;20029;-49
2023/08/14 07:40:51;;;;;;;0.00;0.00;;;;;;;24.73;100.00;101344.56;5071677;28;20106;-46
2023/08/14 07:43:17;;;;;;;0.00;0.00;;;;;;;24.80;97.67;101349.00;5072150;28;20024;-50
2023/08/14 07:45:43;;;;;;;0.00;0.00;;;;;;;25.40;95.27;101353.22;5070735;28;20028;-44
2023/08/14 07:48:09;;;;;;;0.00;0.00;;;;;;;25.32;95.08;101351.00;5072537;28;20029;-46
2023/08/14 07:50:34;;;;;;;0.00;0.00;;;;;;;24.96;97.78;101348.84;5069848;28;20169;-44
2023/08/14 07:52:59;;;;;;;0.00;0.00;;;;;;;24.86;100.00;101347.97;5072018;28;20097;-45
2023/08/14 07:55:25;;;;;;;0.00;0.00;;;;;;;25.22;95.97;101334.41;5072177;28;20032;-43
2023/08/14 07:57:50;;;;;;;0.00;0.00;;;;;;;25.17;92.57;101338.81;5071625;28;20461;-43
2023/08/14 08:00:16;;;;;;;0.00;0.00;;;;;;;24.97;96.11;101345.00;5070700;28;20026;-46
2023/08/14 08:02:42;;;;;;;0.00;0.00;;;;;;;24.95;97.29;101346.34;5071610;28;20032;-47
2023/08/14 08:05:08;;;;;;;0.00;0.00;;;;;;;25.15;97.47;101352.00;5071865;28;20030;-45
2023/08/14 08:07:33;;;;;;;0.00;0.00;;;;;;;25.62;95.00;101339.28;5071257;28;20106;-44
2023/08/14 08:09:59;;;;;;;0.00;0.00;;;;;;;25.70;93.85;101343.41;5071439;28;20337;-46
2023/08/14 08:12:24;;;;;;;0.00;0.00;;;;;;;25.67;89.27;101344.78;5071461;28;20033;-47
2023/08/14 08:14:49;;;;;;;0.00;0.00;;;;;;;25.81;90.69;101348.69;5071838;28;20032;-46
2023/08/14 08:17:16;;;;;;;0.00;0.00;;;;;;;26.82;90.95;101346.31;5070927;28;20036;-50
2023/08/14 08:19:42;;;;;;;0.00;0.00;;;;;;;26.27;86.98;101339.69;5071976;28;20052;-47
2023/08/14 08:22:07;;;;;;;0.00;0.00;;;;;;;26.15;90.17;101344.66;5072420;28;20454;-43
2023/08/14 08:24:33;;;;;;;0.00;0.00;;;;;;;26.15;88.60;101339.13;5073372;28;20051;-45
2023/08/14 08:26:58;;;;;;;0.00;0.00;;;;;;;26.67;87.43;101349.06;5074263;28;20055;-43
2023/08/14 08:29:23;;;;;;;0.00;0.00;;;;;;;25.55;89.16;101342.28;5073055;28;20414;-47
2023/08/14 08:31:49;;;;;;;0.00;0.00;;;;;;;26.02;89.04;101348.78;5071262;28;20033;-43
2023/08/14 08:34:14;;;;;;;0.00;0.00;;;;;;;26.69;88.19;101349.63;5072400;28;20048;-43
2023/08/14 08:36:39;;;;;;;0.00;0.00;;;;;;;25.84;88.67;101350.09;5071053;28;20025;-44
2023/08/14 08:39:05;;;;;;;0.00;0.00;;;;;;;25.87;88.30;101340.47;5071455;28;20107;-45
2023/08/14 08:41:32;;;;;;;0.00;0.00;;;;;;;26.09;90.83;101342.97;5068898;28;20056;-45
2023/08/14 08:44:09;;;;;;;0.00;0.00;;;;;;;26.11;91.28;101341.59;5071473;28;20032;-46
2023/08/14 08:46:39;;;;;;;0.00;0.00;;;;;;;25.88;91.66;101348.44;5071143;28;20036;-44
2023/08/14 08:49:05;;;;;;;0.00;0.00;;;;;;;26.02;91.64;101343.25;5053864;28;20391;-47
2023/08/14 08:51:31;;;;;;;0.00;0.00;;;;;;;26.62;91.11;101340.78;5071600;28;20025;-45
2023/08/14 08:53:58;;;;;;;0.00;0.00;;;;;;;27.04;87.72;101336.84;5053242;28;20029;-46
2023/08/14 08:56:23;;;;;;;0.00;0.00;;;;;;;26.98;87.37;101347.09;5053110;28;20035;-46
2023/08/14 08:58:49;;;;;;;0.00;0.00;;;;;;;27.86;86.76;101345.69;5060148;28;20048;-45
2023/08/14 09:01:14;;;;;;;0.00;0.00;;;;;;;28.11;84.39;101339.16;5050895;28;20479;-45
2023/08/14 09:03:41;;;;;;;0.00;0.00;;;;;;;27.55;84.63;101337.53;5049536;28;20041;-47
2023/08/14 09:06:07;;;;;;;0.00;0.00;;;;;;;27.49;87.90;101333.13;5050370;28;20063;-45
2023/08/14 09:08:32;;;;;;;0.00;0.00;;;;;;;26.84;89.57;101335.81;5048306;28;20037;-45
2023/08/14 09:10:58;;;;;;;0.00;0.00;;;;;;;27.02;87.19;101339.91;5050410;28;20059;-42
2023/08/14 09:13:23;;;;;;;0.00;0.00;;;;;;;26.77;88.75;101321.44;5049848;28;20072;-45
2023/08/14 09:15:51;;;;;;;0.00;0.00;;;;;;;26.37;89.69;101311.25;5050992;28;20365;-46
2023/08/14 09:18:17;;;;;;;0.00;0.00;;;;;;;26.85;91.11;101318.13;5049282;28;20482;-45
2023/08/14 09:20:42;;;;;;;0.00;0.00;;;;;;;27.04;89.65;101323.03;5050810;28;20025;-46
2023/08/14 09:23:14;;;;;;;0.00;0.00;;;;;;;27.23;89.76;101315.84;5049472;28;20060;-48
2023/08/14 09:25:40;;;;;;;0.00;0.00;;;;;;;27.41;88.52;101314.38;5050419;28;20128;-44
2023/08/14 09:28:08;;;;;;;0.00;0.00;;;;;;;27.30;88.72;101312.75;5050023;28;20426;-47
2023/08/14 09:30:35;;;;;;;0.00;0.00;;;;;;;27.57;86.61;101306.84;5048146;28;20075;-45
2023/08/14 09:33:00;;;;;;;0.00;0.00;;;;;;;27.14;87.61;101309.19;5049706;28;20055;-43
2023/08/14 09:35:25;;;;;;;0.00;0.00;;;;;;;26.91;88.37;101317.03;5047182;28;20499;-46
2023/08/14 09:37:51;;;;;;;0.00;0.00;;;;;;;26.35;89.71;101319.81;5050071;28;20082;-48
2023/08/14 09:40:17;;;;;;;0.00;0.00;;;;;;;26.18;91.84;101302.72;5050325;28;20483;-46
2023/08/14 09:42:47;;;;;;;0.00;0.00;;;;;;;26.19;92.30;101302.44;5050486;28;20387;-47
2023/08/14 09:45:14;;;;;;;0.00;0.00;;;;;;;26.70;94.08;101298.84;5049243;28;20354;-43
2023/08/14 09:47:43;;;;;;;0.00;0.00;;;;;;;26.67;90.97;101289.19;5049596;28;20087;-43
2023/08/14 09:50:10;;;;;;;0.00;0.00;;;;;;;26.75;91.08;101289.69;5050601;28;20100;-43
2023/08/14 09:52:36;;;;;;;0.00;0.00;;;;;;;26.99;89.78;101285.22;5050414;28;20432;-43
2023/08/14 09:55:02;;;;;;;0.00;0.00;;;;;;;27.01;89.58;101293.22;5050261;28;20068;-46
2023/08/14 09:57:27;;;;;;;0.00;0.00;;;;;;;27.56;90.02;101283.06;5047086;28;20037;-43
2023/08/14 09:59:52;;;;;;;0.00;0.00;;;;;;;27.99;86.65;101281.41;5065922;28;20044;-45
2023/08/14 10:02:22;;;;;;;0.00;0.00;;;;;;;28.18;84.65;101281.53;5069735;28;20486;-44
2023/08/14 10:04:48;;;;;;;0.00;0.00;;;;;;;28.97;80.94;101294.34;5070065;28;20040;-50
2023/08/14 10:07:14;;;;;;;0.00;0.00;;;;;;;29.12;80.93;101296.94;5065191;28;20017;-45
2023/08/14 10:09:43;;;;;;;0.00;0.00;;;;;;;28.70;80.07;101292.13;5065579;28;20039;-46
2023/08/14 10:12:12;;;;;;;0.00;0.00;;;;;;;28.28;83.79;101283.41;5050369;28;20150;-44
2023/08/14 10:14:38;;;;;;;0.00;0.00;;;;;;;28.59;82.34;101283.94;5066664;28;20107;-44
2023/08/14 10:17:06;;;;;;;0.00;0.00;;;;;;;28.72;82.06;101274.13;5045931;28;20025;-45
2023/08/14 10:19:33;;;;;;;0.00;0.00;;;;;;;27.97;81.17;101266.22;5051983;28;20033;-44
2023/08/14 10:21:59;;;;;;;0.00;0.00;;;;;;;26.69;85.28;101275.09;5050871;28;20031;-46
2023/08/14 10:24:27;;;;;;;0.00;0.00;;;;;;;26.09;89.01;101274.00;5069548;28;20021;-43
2023/08/14 10:26:53;;;;;;;0.00;0.00;;;;;;;26.56;85.53;101259.94;5053126;28;20090;-44
2023/08/14 10:29:18;;;;;;;0.00;0.00;;;;;;;26.70;86.14;101265.72;5067682;28;20080;-47
2023/08/14 10:31:46;;;;;;;0.00;0.00;;;;;;;27.10;85.31;101264.75;5066241;28;20033;-44
2023/08/14 10:34:13;;;;;;;0.00;0.00;;;;;;;27.47;80.73;101269.00;5065638;28;20025;-46
2023/08/14 10:36:39;;;;;;;;;;;;;;;27.08;79.98;101266.13;5051810;28;20447;-45
2023/08/14 10:39:10;;;;;;;0.00;0.00;;;;;;;26.97;81.52;101270.88;5070449;28;19954;-47
2023/08/14 10:41:35;;;;;;;0.00;0.00;;;;;;;27.04;82.58;101265.03;5069509;28;20032;-47
2023/08/14 10:44:08;;;;;;;0.00;0.00;;;;;;;27.09;80.98;101267.78;5052960;28;20048;-45
2023/08/14 10:46:36;;;;;;;0.00;0.00;;;;;;;27.21;81.14;101270.25;5066050;28;20048;-47
2023/08/14 10:49:02;;;;;;;0.00;0.00;;;;;;;26.71;82.00;101272.88;5070151;28;20090;-49
2023/08/14 10:51:30;;;;;;;0.00;0.00;;;;;;;27.04;81.31;101265.03;5072021;28;20029;-47
2023/08/14 10:54:23;;;;;;;0.00;0.00;;;;;;;26.69;84.43;101272.31;5073364;28;20112;-44
2023/08/14 10:56:57;;;;;;;0.00;0.00;;;;;;;26.40;84.78;101261.84;5070240;28;20033;-45
2023/08/14 10:59:28;;;;;;;0.00;0.00;;;;;;;26.23;86.02;101261.34;5073860;28;20110;-47
2023/08/14 11:02:12;;;;;;;0.00;0.00;;;;;;;26.93;85.68;101259.53;5072811;28;20569;-47
2023/08/14 11:05:00;;;;;;;0.00;0.00;;;;;;;27.38;85.09;101258.81;5058025;28;20090;-48
2023/08/14 11:07:30;;;;;;;0.00;0.00;;;;;;;27.07;81.80;101258.97;5053696;28;20107;-47
2023/08/14 11:09:59;;;;;;;0.00;0.00;;;;;;;26.85;82.93;101260.13;5071434;28;20054;-49
2023/08/14 11:12:25;;;;;;;0.00;0.00;;;;;;;27.79;83.18;101262.16;5054687;28;20021;-48
2023/08/14 11:14:51;;;;;;;0.00;0.00;;;;;;;26.85;81.62;101265.66;5069814;28;20029;-45
2023/08/14 11:17:16;;;;;;;0.00;0.00;;;;;;;27.23;82.47;101241.22;5065637;28;20505;-47